sensor_id;sensor_type;location;lat;lon;timestamp;pressure;altitude;pressure_sealevel;temperature;humidity
30856;BME280;17570;0.000;0.000;2022-12-18T00:02:11;97748.16;;;18.45;41.10
30856;BME280;17570;0.000;0.000;2022-12-18T00:04:38;97751.09;;;18.42;40.95
30856;BME280;17570;0.000;0.000;2022-12-18T00:07:07;97751.25;;;18.40;41.21
30856;BME280;17570;0.000;0.000;2022-12-18T00:09:35;97747.95;;;18.38;41.04
30856;BME280;17570;0.000;0.000;2022-12-18T00:12:02;97748.78;;;18.39;41.05
30856;BME280;17570;0.000;0.000;2022-12-18T00:14:30;97748.09;;;18.36;41.11
30856;BME280;17570;0.000;0.000;2022-12-18T00:16:57;97762.05;;;18.37;41.21
30856;BME280;17570;0.000;0.000;2022-12-18T00:19:27;97777.00;;;18.36;41.43
30856;BME280;17570;0.000;0.000;2022-12-18T00:21:54;97774.53;;;18.35;41.33
30856;BME280;17570;0.000;0.000;2022-12-18T00:24:21;97773.02;;;18.32;41.30
30856;BME280;17570;0.000;0.000;2022-12-18T00:26:49;97773.88;;;18.33;41.55
30856;BME280;17570;0.000;0.000;2022-12-18T00:29:16;97781.76;;;18.33;41.63
30856;BME280;17570;0.000;0.000;2022-12-18T00:31:44;97774.45;;;18.27;41.62
30856;BME280;17570;0.000;0.000;2022-12-18T00:34:12;97777.08;;;18.27;41.87
30856;BME280;17570;0.000;0.000;2022-12-18T00:36:39;97781.52;;;18.26;41.63
30856;BME280;17570;0.000;0.000;2022-12-18T00:39:07;97785.95;;;18.26;41.49
30856;BME280;17570;0.000;0.000;2022-12-18T00:41:35;97790.83;;;18.21;41.52
30856;BME280;17570;0.000;0.000;2022-12-18T00:44:20;97789.84;;;18.22;41.72
30856;BME280;17570;0.000;0.000;2022-12-18T00:46:48;97799.61;;;18.12;41.80
30856;BME280;17570;0.000;0.000;2022-12-18T00:49:16;97806.51;;;18.13;41.83
30856;BME280;17570;0.000;0.000;2022-12-18T00:51:44;97802.08;;;18.13;41.84
30856;BME280;17570;0.000;0.000;2022-12-18T00:54:12;97802.61;;;18.17;41.86
30856;BME280;17570;0.000;0.000;2022-12-18T00:56:39;97803.59;;;18.16;41.62
30856;BME280;17570;0.000;0.000;2022-12-18T00:59:07;97796.53;;;18.16;41.80
30856;BME280;17570;0.000;0.000;2022-12-18T01:01:35;97803.75;;;18.14;41.74
30856;BME280;17570;0.000;0.000;2022-12-18T01:04:04;97804.20;;;18.09;41.56
30856;BME280;17570;0.000;0.000;2022-12-18T01:06:32;97810.56;;;18.07;41.95
30856;BME280;17570;0.000;0.000;2022-12-18T01:09:01;97818.22;;;18.00;41.98
30856;BME280;17570;0.000;0.000;2022-12-18T01:11:28;97811.55;;;18.06;41.88
30856;BME280;17570;0.000;0.000;2022-12-18T01:13:56;97809.89;;;18.05;41.97
30856;BME280;17570;0.000;0.000;2022-12-18T01:16:26;97811.98;;;18.01;42.05
30856;BME280;17570;0.000;0.000;2022-12-18T01:18:56;97813.79;;;18.01;42.38
30856;BME280;17570;0.000;0.000;2022-12-18T01:21:25;97812.59;;;17.95;42.21
30856;BME280;17570;0.000;0.000;2022-12-18T01:23:53;97815.22;;;17.95;42.44
30856;BME280;17570;0.000;0.000;2022-12-18T01:26:23;97813.25;;;17.97;42.25
30856;BME280;17570;0.000;0.000;2022-12-18T01:28:50;97808.44;;;17.93;42.39
30856;BME280;17570;0.000;0.000;2022-12-18T01:31:20;97813.53;;;17.94;42.45
30856;BME280;17570;0.000;0.000;2022-12-18T01:33:48;97819.67;;;17.85;42.50
30856;BME280;17570;0.000;0.000;2022-12-18T01:36:26;97817.73;;;17.87;42.51
30856;BME280;17570;0.000;0.000;2022-12-18T01:38:54;97814.29;;;17.87;42.59
30856;BME280;17570;0.000;0.000;2022-12-18T01:41:23;97816.66;;;17.80;42.60
30856;BME280;17570;0.000;0.000;2022-12-18T01:46:22;97817.64;;;17.79;42.68
30856;BME280;17570;0.000;0.000;2022-12-18T01:48:56;97821.91;;;17.80;42.54
30856;BME280;17570;0.000;0.000;2022-12-18T01:51:19;97815.01;;;17.79;42.59
30856;BME280;17570;0.000;0.000;2022-12-18T01:53:47;97818.89;;;17.75;42.63
30856;BME280;17570;0.000;0.000;2022-12-18T01:56:16;97819.44;;;17.78;42.72
30856;BME280;17570;0.000;0.000;2022-12-18T01:58:54;97829.79;;;17.80;42.83
30856;BME280;17570;0.000;0.000;2022-12-18T02:01:23;97826.49;;;17.78;42.78
30856;BME280;17570;0.000;0.000;2022-12-18T02:03:50;97836.45;;;17.74;42.84
30856;BME280;17570;0.000;0.000;2022-12-18T02:06:23;97837.52;;;17.72;42.70
30856;BME280;17570;0.000;0.000;2022-12-18T02:27:23;97846.46;;;17.51;42.92
30856;BME280;17570;0.000;0.000;2022-12-18T02:29:51;97858.48;;;17.54;42.79
30856;BME280;17570;0.000;0.000;2022-12-18T02:32:35;97850.19;;;17.58;42.84
30856;BME280;17570;0.000;0.000;2022-12-18T02:34:59;97852.66;;;17.60;42.55
30856;BME280;17570;0.000;0.000;2022-12-18T02:37:28;97857.94;;;17.50;42.90
30856;BME280;17570;0.000;0.000;2022-12-18T02:39:59;97858.34;;;17.55;42.93
30856;BME280;17570;0.000;0.000;2022-12-18T02:42:27;97864.41;;;17.56;42.89
30856;BME280;17570;0.000;0.000;2022-12-18T02:44:55;97861.11;;;17.54;42.77
30856;BME280;17570;0.000;0.000;2022-12-18T02:47:24;97866.48;;;17.52;42.98
30856;BME280;17570;0.000;0.000;2022-12-18T02:55:14;97871.65;;;17.44;43.17
30856;BME280;17570;0.000;0.000;2022-12-18T02:57:42;97873.97;;;17.47;43.12
30856;BME280;17570;0.000;0.000;2022-12-18T03:00:14;97878.39;;;17.47;43.00
30856;BME280;17570;0.000;0.000;2022-12-18T03:02:58;97872.31;;;17.46;43.04
30856;BME280;17570;0.000;0.000;2022-12-18T03:05:28;97888.34;;;17.43;43.19
30856;BME280;17570;0.000;0.000;2022-12-18T03:10:35;97892.64;;;17.34;43.57
30856;BME280;17570;0.000;0.000;2022-12-18T03:13:10;97901.64;;;17.32;43.60
30856;BME280;17570;0.000;0.000;2022-12-18T03:15:39;97904.66;;;17.37;43.65
30856;BME280;17570;0.000;0.000;2022-12-18T03:18:14;97907.14;;;17.39;43.45
30856;BME280;17570;0.000;0.000;2022-12-18T03:20:37;97902.31;;;17.34;43.67
30856;BME280;17570;0.000;0.000;2022-12-18T03:23:07;97905.76;;;17.34;43.68
30856;BME280;17570;0.000;0.000;2022-12-18T03:25:35;97905.76;;;17.34;43.50
30856;BME280;17570;0.000;0.000;2022-12-18T03:28:04;97915.43;;;17.34;43.65
30856;BME280;17570;0.000;0.000;2022-12-18T03:30:35;97920.70;;;17.24;43.81
30856;BME280;17570;0.000;0.000;2022-12-18T03:33:06;97916.83;;;17.28;43.85
30856;BME280;17570;0.000;0.000;2022-12-18T03:35:35;97922.78;;;17.30;43.74
30856;BME280;17570;0.000;0.000;2022-12-18T03:38:04;97917.95;;;17.26;43.90
30856;BME280;17570;0.000;0.000;2022-12-18T03:40:35;97925.00;;;17.25;43.86
30856;BME280;17570;0.000;0.000;2022-12-18T03:43:03;97937.15;;;17.26;43.95
30856;BME280;17570;0.000;0.000;2022-12-18T03:45:38;97949.44;;;17.26;43.99
30856;BME280;17570;0.000;0.000;2022-12-18T03:53:22;97950.53;;;17.23;44.35
30856;BME280;17570;0.000;0.000;2022-12-18T03:55:48;97966.02;;;17.17;44.52
30856;BME280;17570;0.000;0.000;2022-12-18T03:58:17;97965.61;;;17.21;44.50
30856;BME280;17570;0.000;0.000;2022-12-18T04:00:47;97977.48;;;17.25;44.30
30856;BME280;17570;0.000;0.000;2022-12-18T04:03:17;97979.25;;;17.25;44.17
30856;BME280;17570;0.000;0.000;2022-12-18T04:05:46;97975.95;;;17.23;44.28
30856;BME280;17570;0.000;0.000;2022-12-18T04:08:16;97978.30;;;17.26;44.43
30856;BME280;17570;0.000;0.000;2022-12-18T04:10:46;97982.84;;;17.24;44.25
30856;BME280;17570;0.000;0.000;2022-12-18T04:13:21;97991.69;;;17.23;44.30
30856;BME280;17570;0.000;0.000;2022-12-18T04:15:42;97982.84;;;17.24;44.22
30856;BME280;17570;0.000;0.000;2022-12-18T04:18:12;97990.87;;;17.22;44.35
30856;BME280;17570;0.000;0.000;2022-12-18T04:20:40;97994.31;;;17.23;44.41
30856;BME280;17570;0.000;0.000;2022-12-18T04:23:08;97997.91;;;17.22;44.37
30856;BME280;17570;0.000;0.000;2022-12-18T04:25:36;98006.61;;;17.22;44.37
30856;BME280;17570;0.000;0.000;2022-12-18T04:28:05;98009.38;;;17.21;44.37
30856;BME280;17570;0.000;0.000;2022-12-18T04:30:33;98008.67;;;17.19;44.46
30856;BME280;17570;0.000;0.000;2022-12-18T04:33:01;98006.05;;;17.19;44.22
30856;BME280;17570;0.000;0.000;2022-12-18T04:35:29;98004.40;;;17.18;44.46
30856;BME280;17570;0.000;0.000;2022-12-18T04:37:58;98007.02;;;17.18;44.48
30856;BME280;17570;0.000;0.000;2022-12-18T04:40:26;98010.73;;;17.15;44.47
30856;BME280;17570;0.000;0.000;2022-12-18T04:42:54;98017.66;;;17.16;44.32
30856;BME280;17570;0.000;0.000;2022-12-18T04:45:21;98019.98;;;17.09;44.45
30856;BME280;17570;0.000;0.000;2022-12-18T04:47:49;98030.22;;;17.13;44.35
30856;BME280;17570;0.000;0.000;2022-12-18T04:50:16;98029.39;;;17.12;44.27
30856;BME280;17570;0.000;0.000;2022-12-18T04:52:44;98037.38;;;17.11;44.19
30856;BME280;17570;0.000;0.000;2022-12-18T04:55:12;98039.33;;;17.08;44.01
30856;BME280;17570;0.000;0.000;2022-12-18T04:57:40;98037.94;;;17.04;43.89
30856;BME280;17570;0.000;0.000;2022-12-18T05:00:08;98041.53;;;17.03;43.75
30856;BME280;17570;0.000;0.000;2022-12-18T05:02:35;98049.66;;;17.00;43.63
30856;BME280;17570;0.000;0.000;2022-12-18T05:05:03;98058.09;;;17.04;43.74
30856;BME280;17570;0.000;0.000;2022-12-18T05:07:31;98058.50;;;16.99;43.66
30856;BME280;17570;0.000;0.000;2022-12-18T05:09:58;98064.72;;;16.98;43.47
30856;BME280;17570;0.000;0.000;2022-12-18T05:12:26;98057.25;;;16.94;43.64
30856;BME280;17570;0.000;0.000;2022-12-18T05:14:53;98064.15;;;16.95;43.55
30856;BME280;17570;0.000;0.000;2022-12-18T05:17:20;98065.23;;;16.92;43.55
30856;BME280;17570;0.000;0.000;2022-12-18T05:19:48;98064.98;;;16.95;43.55
30856;BME280;17570;0.000;0.000;2022-12-18T05:22:15;98063.33;;;16.94;43.50
30856;BME280;17570;0.000;0.000;2022-12-18T05:24:43;98065.69;;;16.97;43.53
30856;BME280;17570;0.000;0.000;2022-12-18T05:27:10;98069.94;;;16.89;43.31
30856;BME280;17570;0.000;0.000;2022-12-18T05:29:38;98074.36;;;16.88;43.36
30856;BME280;17570;0.000;0.000;2022-12-18T05:32:05;98083.73;;;16.91;43.11
30856;BME280;17570;0.000;0.000;2022-12-18T05:34:33;98092.72;;;16.88;43.08
30856;BME280;17570;0.000;0.000;2022-12-18T05:37:00;98091.75;;;16.89;43.15
30856;BME280;17570;0.000;0.000;2022-12-18T05:39:28;98087.59;;;16.87;43.03
30856;BME280;17570;0.000;0.000;2022-12-18T05:41:55;98096.68;;;16.82;43.13
30856;BME280;17570;0.000;0.000;2022-12-18T05:44:22;98099.59;;;16.79;42.96
30856;BME280;17570;0.000;0.000;2022-12-18T05:46:50;98107.31;;;16.81;42.96
30856;BME280;17570;0.000;0.000;2022-12-18T05:49:17;98104.27;;;16.76;42.95
30856;BME280;17570;0.000;0.000;2022-12-18T05:51:45;98113.64;;;16.78;43.00
30856;BME280;17570;0.000;0.000;2022-12-18T05:54:12;98117.38;;;16.76;42.85
30856;BME280;17570;0.000;0.000;2022-12-18T05:56:40;98115.11;;;16.71;42.86
30856;BME280;17570;0.000;0.000;2022-12-18T05:59:07;98115.00;;;16.73;42.80
30856;BME280;17570;0.000;0.000;2022-12-18T06:01:35;98121.22;;;16.72;42.94
30856;BME280;17570;0.000;0.000;2022-12-18T06:04:02;98122.76;;;16.74;42.77
30856;BME280;17570;0.000;0.000;2022-12-18T06:06:30;98128.11;;;16.73;42.83
30856;BME280;17570;0.000;0.000;2022-12-18T06:08:57;98132.38;;;16.74;42.80
30856;BME280;17570;0.000;0.000;2022-12-18T06:11:25;98138.70;;;16.71;42.86
30856;BME280;17570;0.000;0.000;2022-12-18T06:13:54;98136.30;;;16.58;42.85
30856;BME280;17570;0.000;0.000;2022-12-18T06:16:22;98143.34;;;16.58;42.84
30856;BME280;17570;0.000;0.000;2022-12-18T06:18:49;98151.77;;;16.62;42.61
30856;BME280;17570;0.000;0.000;2022-12-18T06:21:17;98152.74;;;16.61;42.52
30856;BME280;17570;0.000;0.000;2022-12-18T06:23:44;98158.09;;;16.59;42.59
30856;BME280;17570;0.000;0.000;2022-12-18T06:26:12;98168.03;;;16.55;42.81
30856;BME280;17570;0.000;0.000;2022-12-18T06:28:40;98167.31;;;16.53;42.70
30856;BME280;17570;0.000;0.000;2022-12-18T06:31:08;98175.31;;;16.52;42.68
30856;BME280;17570;0.000;0.000;2022-12-18T06:33:36;98174.05;;;16.46;42.97
30856;BME280;17570;0.000;0.000;2022-12-18T06:36:05;98183.56;;;16.47;42.85
30856;BME280;17570;0.000;0.000;2022-12-18T06:38:34;98186.30;;;16.46;42.96
30856;BME280;17570;0.000;0.000;2022-12-18T06:41:08;98180.22;;;16.45;42.95
30856;BME280;17570;0.000;0.000;2022-12-18T06:43:36;98182.16;;;16.43;43.08
30856;BME280;17570;0.000;0.000;2022-12-18T06:46:03;98178.57;;;16.44;43.05
30856;BME280;17570;0.000;0.000;2022-12-18T06:48:31;98188.09;;;16.45;43.08
30856;BME280;17570;0.000;0.000;2022-12-18T06:50:58;98183.42;;;16.49;42.85
30856;BME280;17570;0.000;0.000;2022-12-18T06:53:26;98193.08;;;16.48;42.78
30856;BME280;17570;0.000;0.000;2022-12-18T06:56:03;98191.42;;;16.47;42.97
30856;BME280;17570;0.000;0.000;2022-12-18T06:58:23;98196.78;;;16.46;43.04
30856;BME280;17570;0.000;0.000;2022-12-18T07:00:50;98196.78;;;16.46;42.75
30856;BME280;17570;0.000;0.000;2022-12-18T07:03:18;98200.50;;;16.43;42.54
30856;BME280;17570;0.000;0.000;2022-12-18T07:05:45;98199.78;;;16.41;42.73
30856;BME280;17570;0.000;0.000;2022-12-18T07:08:13;98199.67;;;16.43;42.90
30856;BME280;17570;0.000;0.000;2022-12-18T07:10:41;98202.54;;;16.40;43.15
30856;BME280;17570;0.000;0.000;2022-12-18T07:13:08;98205.30;;;16.38;43.39
30856;BME280;17570;0.000;0.000;2022-12-18T07:15:36;98208.61;;;16.40;43.53
30856;BME280;17570;0.000;0.000;2022-12-18T07:18:03;98204.58;;;16.36;43.65
30856;BME280;17570;0.000;0.000;2022-12-18T07:20:31;98205.02;;;16.41;43.57
30856;BME280;17570;0.000;0.000;2022-12-18T07:22:58;98207.78;;;16.40;43.56
30856;BME280;17570;0.000;0.000;2022-12-18T07:25:26;98207.64;;;16.41;43.58
30856;BME280;17570;0.000;0.000;2022-12-18T07:27:54;98211.95;;;16.42;43.69
30856;BME280;17570;0.000;0.000;2022-12-18T07:30:21;98211.23;;;16.40;43.61
30856;BME280;17570;0.000;0.000;2022-12-18T07:32:49;98212.88;;;16.41;43.61
30856;BME280;17570;0.000;0.000;2022-12-18T07:35:16;98214.57;;;16.42;43.81
30856;BME280;17570;0.000;0.000;2022-12-18T07:37:44;98222.44;;;16.42;43.94
30856;BME280;17570;0.000;0.000;2022-12-18T07:40:12;98221.09;;;16.48;43.76
30856;BME280;17570;0.000;0.000;2022-12-18T07:42:39;98227.73;;;16.52;43.60
30856;BME280;17570;0.000;0.000;2022-12-18T07:45:07;98224.59;;;16.58;43.53
30856;BME280;17570;0.000;0.000;2022-12-18T07:47:35;98215.91;;;16.57;43.65
30856;BME280;17570;0.000;0.000;2022-12-18T07:50:03;98215.66;;;16.61;43.70
30856;BME280;17570;0.000;0.000;2022-12-18T07:52:32;98213.86;;;16.61;43.53
30856;BME280;17570;0.000;0.000;2022-12-18T07:54:59;98218.72;;;16.66;43.42
30856;BME280;17570;0.000;0.000;2022-12-18T07:57:27;98220.38;;;16.67;43.32
30856;BME280;17570;0.000;0.000;2022-12-18T07:59:54;98225.37;;;16.70;43.29
30856;BME280;17570;0.000;0.000;2022-12-18T08:02:22;98223.58;;;16.70;43.22
30856;BME280;17570;0.000;0.000;2022-12-18T08:04:49;98229.40;;;16.74;43.25
30856;BME280;17570;0.000;0.000;2022-12-18T08:07:17;98231.77;;;16.77;43.27
30856;BME280;17570;0.000;0.000;2022-12-18T08:09:44;98231.63;;;16.78;42.99
30856;BME280;17570;0.000;0.000;2022-12-18T08:12:12;98241.73;;;16.83;42.87
30856;BME280;17570;0.000;0.000;2022-12-18T08:14:39;98243.42;;;16.84;42.93
30856;BME280;17570;0.000;0.000;2022-12-18T08:17:07;98239.83;;;16.85;42.81
30856;BME280;17570;0.000;0.000;2022-12-18T08:19:34;98243.14;;;16.87;42.58
30856;BME280;17570;0.000;0.000;2022-12-18T08:22:02;98251.01;;;16.87;42.99
30856;BME280;17570;0.000;0.000;2022-12-18T08:24:29;98249.21;;;16.88;42.78
30856;BME280;17570;0.000;0.000;2022-12-18T08:26:57;98255.03;;;16.91;42.90
30856;BME280;17570;0.000;0.000;2022-12-18T08:29:24;98256.83;;;16.91;42.69
30856;BME280;17570;0.000;0.000;2022-12-18T08:31:52;98256.58;;;16.94;42.44
30856;BME280;17570;0.000;0.000;2022-12-18T08:34:19;98253.67;;;16.97;42.16
30856;BME280;17570;0.000;0.000;2022-12-18T08:36:46;98263.92;;;17.00;42.13
30856;BME280;17570;0.000;0.000;2022-12-18T08:39:14;98263.09;;;16.99;41.75
30856;BME280;17570;0.000;0.000;2022-12-18T08:41:41;98266.16;;;17.04;41.66
30856;BME280;17570;0.000;0.000;2022-12-18T08:44:11;98257.31;;;17.05;41.40
30856;BME280;17570;0.000;0.000;2022-12-18T08:46:56;98263.67;;;17.03;40.94
30856;BME280;17570;0.000;0.000;2022-12-18T08:49:24;98270.09;;;16.89;41.04
30856;BME280;17570;0.000;0.000;2022-12-18T08:51:53;98277.56;;;16.94;40.99
30856;BME280;17570;0.000;0.000;2022-12-18T08:54:20;98271.65;;;17.01;40.47
30856;BME280;17570;0.000;0.000;2022-12-18T08:56:48;98270.72;;;17.02;39.42
30856;BME280;17570;0.000;0.000;2022-12-18T08:59:16;98281.75;;;17.06;38.62
30856;BME280;17570;0.000;0.000;2022-12-18T09:01:43;98284.13;;;17.09;37.48
30856;BME280;17570;0.000;0.000;2022-12-18T09:04:11;98289.91;;;17.03;36.98
30856;BME280;17570;0.000;0.000;2022-12-18T09:06:40;98287.14;;;17.04;36.16
30856;BME280;17570;0.000;0.000;2022-12-18T09:09:08;98287.97;;;17.05;36.18
30856;BME280;17570;0.000;0.000;2022-12-18T09:11:37;98294.87;;;17.06;35.59
30856;BME280;17570;0.000;0.000;2022-12-18T09:14:06;98288.94;;;17.04;34.35
30856;BME280;17570;0.000;0.000;2022-12-18T09:16:34;98292.52;;;17.03;34.41
30856;BME280;17570;0.000;0.000;2022-12-18T09:19:02;98284.91;;;17.00;33.68
30856;BME280;17570;0.000;0.000;2022-12-18T09:21:31;98291.80;;;17.01;33.57
30856;BME280;17570;0.000;0.000;2022-12-18T09:23:59;98283.83;;;17.02;33.41
30856;BME280;17570;0.000;0.000;2022-12-18T09:26:26;98288.22;;;17.02;33.16
30856;BME280;17570;0.000;0.000;2022-12-18T09:28:54;98296.23;;;17.00;32.97
30856;BME280;17570;0.000;0.000;2022-12-18T09:31:22;98299.81;;;16.99;32.56
30856;BME280;17570;0.000;0.000;2022-12-18T09:33:52;98301.61;;;16.99;32.22
30856;BME280;17570;0.000;0.000;2022-12-18T09:36:19;98304.23;;;16.99;32.74
30856;BME280;17570;0.000;0.000;2022-12-18T09:38:47;98300.06;;;16.96;32.06
30856;BME280;17570;0.000;0.000;2022-12-18T09:43:57;98296.36;;;16.99;31.83
30856;BME280;17570;0.000;0.000;2022-12-18T09:46:26;98297.00;;;16.91;31.51
30856;BME280;17570;0.000;0.000;2022-12-18T09:48:54;98307.77;;;16.88;31.06
30856;BME280;17570;0.000;0.000;2022-12-18T09:51:25;98297.72;;;16.93;31.36
30856;BME280;17570;0.000;0.000;2022-12-18T09:53:55;98306.66;;;16.91;31.67
30856;BME280;17570;0.000;0.000;2022-12-18T09:56:21;98292.47;;;16.93;31.06
30856;BME280;17570;0.000;0.000;2022-12-18T09:58:58;98300.34;;;16.93;31.15
30856;BME280;17570;0.000;0.000;2022-12-18T10:01:26;98293.98;;;16.96;31.17
30856;BME280;17570;0.000;0.000;2022-12-18T10:03:54;98294.52;;;16.90;30.30
30856;BME280;17570;0.000;0.000;2022-12-18T10:06:24;98301.41;;;16.91;30.37
30856;BME280;17570;0.000;0.000;2022-12-18T10:16:35;98300.83;;;16.87;31.16
30856;BME280;17570;0.000;0.000;2022-12-18T10:21:45;98292.28;;;16.85;31.37
30856;BME280;17570;0.000;0.000;2022-12-18T10:26:48;98302.52;;;16.88;31.21
30856;BME280;17570;0.000;0.000;2022-12-18T10:29:16;98302.33;;;16.80;30.51
30856;BME280;17570;0.000;0.000;2022-12-18T10:31:44;98306.36;;;16.84;30.64
30856;BME280;17570;0.000;0.000;2022-12-18T10:34:11;98296.17;;;16.91;30.48
30856;BME280;17570;0.000;0.000;2022-12-18T10:36:42;98300.73;;;16.89;30.16
30856;BME280;17570;0.000;0.000;2022-12-18T10:39:23;98302.52;;;16.88;30.12
30856;BME280;17570;0.000;0.000;2022-12-18T10:41:56;98304.28;;;16.88;29.90
30856;BME280;17570;0.000;0.000;2022-12-18T10:44:22;98300.01;;;16.87;30.23
30856;BME280;17570;0.000;0.000;2022-12-18T10:46:55;98293.94;;;16.86;30.26
30856;BME280;17570;0.000;0.000;2022-12-18T10:49:25;98298.93;;;16.89;30.37
30856;BME280;17570;0.000;0.000;2022-12-18T10:52:38;98301.55;;;16.89;30.00
30856;BME280;17570;0.000;0.000;2022-12-18T10:54:22;98294.81;;;16.96;29.40
30856;BME280;17570;0.000;0.000;2022-12-18T10:56:50;98298.02;;;17.00;29.42
30856;BME280;17570;0.000;0.000;2022-12-18T10:59:18;98298.60;;;17.03;29.37
30856;BME280;17570;0.000;0.000;2022-12-18T11:01:52;98297.24;;;17.09;29.43
30856;BME280;17570;0.000;0.000;2022-12-18T11:04:23;98297.00;;;17.12;29.16
30856;BME280;17570;0.000;0.000;2022-12-18T11:06:56;98291.42;;;17.05;29.27
30856;BME280;17570;0.000;0.000;2022-12-18T11:09:21;98285.09;;;17.08;29.41
30856;BME280;17570;0.000;0.000;2022-12-18T11:11:50;98299.04;;;17.08;29.58
30856;BME280;17570;0.000;0.000;2022-12-18T11:14:25;98296.27;;;17.10;29.62
30856;BME280;17570;0.000;0.000;2022-12-18T11:16:49;98291.03;;;17.10;29.52
30856;BME280;17570;0.000;0.000;2022-12-18T11:19:35;98293.66;;;17.10;29.67
30856;BME280;17570;0.000;0.000;2022-12-18T11:22:16;98288.30;;;17.12;29.32
30856;BME280;17570;0.000;0.000;2022-12-18T11:24:33;98295.98;;;17.03;29.49
30856;BME280;17570;0.000;0.000;2022-12-18T11:27:02;98291.03;;;17.10;29.67
30856;BME280;17570;0.000;0.000;2022-12-18T11:29:34;98295.20;;;17.13;29.60
30856;BME280;17570;0.000;0.000;2022-12-18T11:34:48;98296.47;;;17.18;29.67
30856;BME280;17570;0.000;0.000;2022-12-18T11:37:15;98293.41;;;17.13;29.25
30856;BME280;17570;0.000;0.000;2022-12-18T11:39:46;98287.77;;;17.18;28.78
30856;BME280;17570;0.000;0.000;2022-12-18T11:42:23;98288.45;;;17.20;28.86
30856;BME280;17570;0.000;0.000;2022-12-18T11:44:47;98290.58;;;17.26;29.04
30856;BME280;17570;0.000;0.000;2022-12-18T11:47:19;98301.17;;;17.24;28.97
30856;BME280;17570;0.000;0.000;2022-12-18T11:49:44;98291.40;;;17.26;29.15
30856;BME280;17570;0.000;0.000;2022-12-18T11:52:18;98294.71;;;17.28;28.90
30856;BME280;17570;0.000;0.000;2022-12-18T11:54:45;98294.78;;;17.48;30.02
30856;BME280;17570;0.000;0.000;2022-12-18T11:57:28;98299.81;;;17.60;30.90
30856;BME280;17570;0.000;0.000;2022-12-18T12:05:33;98305.60;;;17.54;29.96
30856;BME280;17570;0.000;0.000;2022-12-18T12:13:11;98307.80;;;17.49;29.14
30856;BME280;17570;0.000;0.000;2022-12-18T12:23:39;98302.80;;;17.46;28.84
30856;BME280;17570;0.000;0.000;2022-12-18T12:26:12;98293.84;;;17.49;28.51
30856;BME280;17570;0.000;0.000;2022-12-18T12:28:50;98303.48;;;17.48;27.97
30856;BME280;17570;0.000;0.000;2022-12-18T12:31:28;98302.41;;;17.51;28.33
30856;BME280;17570;0.000;0.000;2022-12-18T12:33:59;98306.40;;;17.45;28.14
30856;BME280;17570;0.000;0.000;2022-12-18T12:38:55;98307.22;;;17.46;28.17
30856;BME280;17570;0.000;0.000;2022-12-18T12:41:26;98310.68;;;17.46;27.82
30856;BME280;17570;0.000;0.000;2022-12-18T12:44:14;98307.08;;;17.47;27.83
30856;BME280;17570;0.000;0.000;2022-12-18T12:46:41;98304.56;;;17.36;28.06
30856;BME280;17570;0.000;0.000;2022-12-18T12:49:14;98312.62;;;17.44;28.06
30856;BME280;17570;0.000;0.000;2022-12-18T12:51:43;98307.08;;;17.47;27.77
30856;BME280;17570;0.000;0.000;2022-12-18T12:54:12;98312.05;;;17.41;27.25
30856;BME280;17570;0.000;0.000;2022-12-18T12:56:43;98316.47;;;17.40;28.25
30856;BME280;17570;0.000;0.000;2022-12-18T13:07:14;98335.92;;;17.38;27.79
30856;BME280;17570;0.000;0.000;2022-12-18T13:12:26;98333.11;;;17.29;27.92
30856;BME280;17570;0.000;0.000;2022-12-18T13:15:22;98338.06;;;17.23;27.93
30856;BME280;17570;0.000;0.000;2022-12-18T13:17:41;98336.51;;;17.20;28.01
30856;BME280;17570;0.000;0.000;2022-12-18T13:20:09;98332.28;;;17.29;28.06
30856;BME280;17570;0.000;0.000;2022-12-18T13:22:38;98326.78;;;17.32;27.47
30856;BME280;17570;0.000;0.000;2022-12-18T13:28:03;98327.36;;;17.36;27.65
30856;BME280;17570;0.000;0.000;2022-12-18T13:43:36;98344.33;;;17.11;28.47
30856;BME280;17570;0.000;0.000;2022-12-18T13:46:05;98351.81;;;17.15;28.29
30856;BME280;17570;0.000;0.000;2022-12-18T13:48:35;98351.95;;;17.14;28.55
30856;BME280;17570;0.000;0.000;2022-12-18T13:51:06;98354.33;;;17.17;27.83
30856;BME280;17570;0.000;0.000;2022-12-18T13:53:49;98355.02;;;17.19;28.05
30856;BME280;17570;0.000;0.000;2022-12-18T13:56:21;98360.65;;;17.14;28.00
30856;BME280;17570;0.000;0.000;2022-12-18T13:59:11;98363.91;;;17.06;27.58
30856;BME280;17570;0.000;0.000;2022-12-18T14:01:23;98360.34;;;17.07;27.52
30856;BME280;17570;0.000;0.000;2022-12-18T14:03:50;98362.25;;;17.05;27.75
30856;BME280;17570;0.000;0.000;2022-12-18T14:06:18;98357.97;;;17.04;27.94
30856;BME280;17570;0.000;0.000;2022-12-18T14:08:45;98364.05;;;17.05;27.79
30856;BME280;17570;0.000;0.000;2022-12-18T14:11:18;98361.17;;;17.08;27.94
30856;BME280;17570;0.000;0.000;2022-12-18T14:13:46;98370.95;;;17.06;27.88
30856;BME280;17570;0.000;0.000;2022-12-18T14:16:14;98363.59;;;17.00;28.20
30856;BME280;17570;0.000;0.000;2022-12-18T14:18:55;98360.97;;;17.00;28.23
30856;BME280;17570;0.000;0.000;2022-12-18T14:21:32;98363.73;;;16.98;28.21
30856;BME280;17570;0.000;0.000;2022-12-18T14:24:12;98364.88;;;16.85;28.13
30856;BME280;17570;0.000;0.000;2022-12-18T14:26:35;98367.50;;;16.85;28.15
30856;BME280;17570;0.000;0.000;2022-12-18T14:29:19;98370.23;;;16.83;28.44
30856;BME280;17570;0.000;0.000;2022-12-18T14:31:50;98385.86;;;16.85;28.29
30856;BME280;17570;0.000;0.000;2022-12-18T14:34:16;98385.06;;;16.73;28.29
30856;BME280;17570;0.000;0.000;2022-12-18T14:36:51;98385.78;;;16.75;28.27
30856;BME280;17570;0.000;0.000;2022-12-18T14:39:16;98387.31;;;16.77;28.44
30856;BME280;17570;0.000;0.000;2022-12-18T14:41:41;98392.69;;;16.76;28.50
30856;BME280;17570;0.000;0.000;2022-12-18T14:44:10;98393.75;;;16.73;28.66
30856;BME280;17570;0.000;0.000;2022-12-18T14:46:44;98397.34;;;16.72;28.25
30856;BME280;17570;0.000;0.000;2022-12-18T14:49:18;98405.41;;;16.69;28.53
30856;BME280;17570;0.000;0.000;2022-12-18T14:51:58;98395.33;;;16.65;28.27
30856;BME280;17570;0.000;0.000;2022-12-18T14:54:26;98398.19;;;16.62;28.37
30856;BME280;17570;0.000;0.000;2022-12-18T14:56:58;98398.20;;;16.50;28.40
30856;BME280;17570;0.000;0.000;2022-12-18T14:59:24;98398.94;;;16.52;28.05
30856;BME280;17570;0.000;0.000;2022-12-18T15:04:35;98429.30;;;16.55;27.48